sensor_id;sensor_type;location;lat;lon;timestamp;P1;durP1;ratioP1;P2;durP2;ratioP2
24261;SDS011;12385;51.412;5.540;2022-12-07T00:01:27;46.33;;;25.27;;
24261;SDS011;12385;51.412;5.540;2022-12-07T00:03:58;43.33;;;25.38;;
24261;SDS011;12385;51.412;5.540;2022-12-07T00:06:32;42.25;;;26.48;;
24261;SDS011;12385;51.412;5.540;2022-12-07T00:09:06;44.50;;;25.60;;
24261;SDS011;12385;51.412;5.540;2022-12-07T00:11:34;43.08;;;26.30;;
24261;SDS011;12385;51.412;5.540;2022-12-07T00:14:01;46.90;;;26.85;;
24261;SDS011;12385;51.412;5.540;2022-12-07T00:16:30;45.35;;;26.52;;
24261;SDS011;12385;51.412;5.540;2022-12-07T00:18:57;45.80;;;27.02;;
24261;SDS011;12385;51.412;5.540;2022-12-07T00:21:29;46.67;;;26.42;;
24261;SDS011;12385;51.412;5.540;2022-12-07T00:23:59;46.13;;;27.88;;
24261;SDS011;12385;51.412;5.540;2022-12-07T00:26:26;49.83;;;28.23;;
24261;SDS011;12385;51.412;5.540;2022-12-07T00:28:55;45.72;;;27.23;;
24261;SDS011;12385;51.412;5.540;2022-12-07T00:31:23;46.92;;;28.20;;
24261;SDS011;12385;51.412;5.540;2022-12-07T00:33:54;42.85;;;26.67;;
24261;SDS011;12385;51.412;5.540;2022-12-07T00:36:21;48.92;;;27.48;;
24261;SDS011;12385;51.412;5.540;2022-12-07T00:38:47;47.13;;;27.70;;
24261;SDS011;12385;51.412;5.540;2022-12-07T00:41:14;48.20;;;28.50;;
24261;SDS011;12385;51.412;5.540;2022-12-07T00:43:41;49.83;;;28.15;;
24261;SDS011;12385;51.412;5.540;2022-12-07T00:46:08;44.13;;;27.13;;
24261;SDS011;12385;51.412;5.540;2022-12-07T00:48:34;46.60;;;26.05;;
24261;SDS011;12385;51.412;5.540;2022-12-07T00:51:00;46.42;;;27.20;;
24261;SDS011;12385;51.412;5.540;2022-12-07T00:53:27;47.92;;;27.80;;
24261;SDS011;12385;51.412;5.540;2022-12-07T00:55:53;50.72;;;27.50;;
24261;SDS011;12385;51.412;5.540;2022-12-07T00:58:20;45.00;;;26.58;;
24261;SDS011;12385;51.412;5.540;2022-12-07T01:00:46;44.22;;;24.95;;
24261;SDS011;12385;51.412;5.540;2022-12-07T01:03:12;48.47;;;27.67;;
24261;SDS011;12385;51.412;5.540;2022-12-07T01:05:38;45.22;;;26.92;;
24261;SDS011;12385;51.412;5.540;2022-12-07T01:08:05;41.90;;;25.20;;
24261;SDS011;12385;51.412;5.540;2022-12-07T01:10:31;46.20;;;26.65;;
24261;SDS011;12385;51.412;5.540;2022-12-07T01:12:57;49.58;;;28.20;;
24261;SDS011;12385;51.412;5.540;2022-12-07T01:15:23;43.70;;;25.30;;
24261;SDS011;12385;51.412;5.540;2022-12-07T01:17:49;46.15;;;26.55;;
24261;SDS011;12385;51.412;5.540;2022-12-07T01:20:15;39.70;;;25.85;;
24261;SDS011;12385;51.412;5.540;2022-12-07T01:22:41;47.28;;;28.00;;
24261;SDS011;12385;51.412;5.540;2022-12-07T01:25:08;40.17;;;25.70;;
24261;SDS011;12385;51.412;5.540;2022-12-07T01:27:35;39.63;;;26.15;;
24261;SDS011;12385;51.412;5.540;2022-12-07T01:30:02;44.45;;;25.65;;
24261;SDS011;12385;51.412;5.540;2022-12-07T01:32:29;45.05;;;25.40;;
24261;SDS011;12385;51.412;5.540;2022-12-07T01:34:55;44.85;;;25.98;;
24261;SDS011;12385;51.412;5.540;2022-12-07T01:37:20;51.05;;;28.50;;
24261;SDS011;12385;51.412;5.540;2022-12-07T01:39:48;45.50;;;27.35;;
24261;SDS011;12385;51.412;5.540;2022-12-07T01:42:14;49.92;;;26.20;;
24261;SDS011;12385;51.412;5.540;2022-12-07T01:47:46;49.30;;;27.42;;
24261;SDS011;12385;51.412;5.540;2022-12-07T01:50:16;43.92;;;25.65;;
24261;SDS011;12385;51.412;5.540;2022-12-07T01:52:43;50.92;;;29.08;;
24261;SDS011;12385;51.412;5.540;2022-12-07T01:55:12;51.60;;;28.40;;
24261;SDS011;12385;51.412;5.540;2022-12-07T01:57:40;43.92;;;26.95;;
24261;SDS011;12385;51.412;5.540;2022-12-07T02:00:08;44.83;;;27.88;;
24261;SDS011;12385;51.412;5.540;2022-12-07T02:02:40;50.15;;;29.63;;
24261;SDS011;12385;51.412;5.540;2022-12-07T02:05:16;42.17;;;27.15;;
24261;SDS011;12385;51.412;5.540;2022-12-07T02:07:42;39.83;;;26.45;;
24261;SDS011;12385;51.412;5.540;2022-12-07T02:10:16;50.70;;;30.15;;
24261;SDS011;12385;51.412;5.540;2022-12-07T02:12:45;47.25;;;27.50;;
24261;SDS011;12385;51.412;5.540;2022-12-07T02:15:19;39.97;;;26.63;;
24261;SDS011;12385;51.412;5.540;2022-12-07T02:18:01;44.88;;;28.70;;
24261;SDS011;12385;51.412;5.540;2022-12-07T02:20:57;48.20;;;27.77;;
24261;SDS011;12385;51.412;5.540;2022-12-07T02:31:55;50.28;;;27.38;;
24261;SDS011;12385;51.412;5.540;2022-12-07T02:34:44;49.38;;;28.75;;
24261;SDS011;12385;51.412;5.540;2022-12-07T02:40:43;47.95;;;29.38;;
24261;SDS011;12385;51.412;5.540;2022-12-07T02:45:51;47.47;;;29.02;;
24261;SDS011;12385;51.412;5.540;2022-12-07T02:48:22;51.38;;;29.13;;
24261;SDS011;12385;51.412;5.540;2022-12-07T02:50:50;50.92;;;27.88;;
24261;SDS011;12385;51.412;5.540;2022-12-07T02:53:33;48.65;;;27.48;;
24261;SDS011;12385;51.412;5.540;2022-12-07T03:05:31;43.53;;;26.73;;
24261;SDS011;12385;51.412;5.540;2022-12-07T03:07:27;49.83;;;28.95;;
24261;SDS011;12385;51.412;5.540;2022-12-07T03:10:03;44.83;;;27.10;;
24261;SDS011;12385;51.412;5.540;2022-12-07T03:12:48;43.35;;;26.40;;
24261;SDS011;12385;51.412;5.540;2022-12-07T03:18:31;51.15;;;27.27;;
24261;SDS011;12385;51.412;5.540;2022-12-07T03:21:02;44.55;;;27.45;;
24261;SDS011;12385;51.412;5.540;2022-12-07T03:23:34;46.80;;;26.92;;
24261;SDS011;12385;51.412;5.540;2022-12-07T03:26:02;43.42;;;25.70;;
24261;SDS011;12385;51.412;5.540;2022-12-07T03:28:31;43.42;;;27.45;;
24261;SDS011;12385;51.412;5.540;2022-12-07T03:31:10;46.47;;;27.30;;
24261;SDS011;12385;51.412;5.540;2022-12-07T03:36:52;55.22;;;28.85;;
24261;SDS011;12385;51.412;5.540;2022-12-07T03:39:29;40.22;;;25.35;;
24261;SDS011;12385;51.412;5.540;2022-12-07T03:42:11;45.70;;;26.15;;
24261;SDS011;12385;51.412;5.540;2022-12-07T03:44:39;45.95;;;27.35;;
24261;SDS011;12385;51.412;5.540;2022-12-07T03:49:46;38.63;;;23.48;;
24261;SDS011;12385;51.412;5.540;2022-12-07T03:52:31;41.70;;;23.83;;
24261;SDS011;12385;51.412;5.540;2022-12-07T03:55:11;46.28;;;24.95;;
24261;SDS011;12385;51.412;5.540;2022-12-07T03:57:43;38.40;;;22.27;;
24261;SDS011;12385;51.412;5.540;2022-12-07T04:00:12;40.67;;;23.15;;
24261;SDS011;12385;51.412;5.540;2022-12-07T04:02:39;36.25;;;22.20;;
24261;SDS011;12385;51.412;5.540;2022-12-07T04:05:06;47.50;;;24.60;;
24261;SDS011;12385;51.412;5.540;2022-12-07T04:07:32;42.03;;;23.60;;
24261;SDS011;12385;51.412;5.540;2022-12-07T04:09:57;38.80;;;22.77;;
24261;SDS011;12385;51.412;5.540;2022-12-07T04:12:23;35.60;;;22.50;;
24261;SDS011;12385;51.412;5.540;2022-12-07T04:14:49;38.17;;;22.67;;
24261;SDS011;12385;51.412;5.540;2022-12-07T04:17:14;39.90;;;23.38;;
24261;SDS011;12385;51.412;5.540;2022-12-07T04:19:40;45.15;;;20.13;;
24261;SDS011;12385;51.412;5.540;2022-12-07T04:22:07;32.15;;;20.85;;
24261;SDS011;12385;51.412;5.540;2022-12-07T04:24:33;39.35;;;22.83;;
24261;SDS011;12385;51.412;5.540;2022-12-07T04:26:59;36.10;;;21.25;;
24261;SDS011;12385;51.412;5.540;2022-12-07T04:29:25;34.17;;;21.25;;
24261;SDS011;12385;51.412;5.540;2022-12-07T04:31:51;34.58;;;20.33;;
24261;SDS011;12385;51.412;5.540;2022-12-07T04:34:17;38.50;;;22.50;;
24261;SDS011;12385;51.412;5.540;2022-12-07T04:36:44;36.15;;;21.05;;
24261;SDS011;12385;51.412;5.540;2022-12-07T04:39:17;38.08;;;20.40;;
24261;SDS011;12385;51.412;5.540;2022-12-07T04:41:45;38.72;;;21.38;;
24261;SDS011;12385;51.412;5.540;2022-12-07T04:44:10;40.70;;;21.65;;
24261;SDS011;12385;51.412;5.540;2022-12-07T04:46:39;43.60;;;22.52;;
24261;SDS011;12385;51.412;5.540;2022-12-07T04:49:05;34.72;;;21.05;;
24261;SDS011;12385;51.412;5.540;2022-12-07T04:51:31;40.53;;;21.80;;
24261;SDS011;12385;51.412;5.540;2022-12-07T04:53:57;34.78;;;21.83;;
24261;SDS011;12385;51.412;5.540;2022-12-07T04:56:23;39.45;;;21.85;;
24261;SDS011;12385;51.412;5.540;2022-12-07T04:58:49;38.33;;;21.60;;
24261;SDS011;12385;51.412;5.540;2022-12-07T05:01:16;38.63;;;22.98;;
24261;SDS011;12385;51.412;5.540;2022-12-07T05:03:42;39.65;;;22.10;;
24261;SDS011;12385;51.412;5.540;2022-12-07T05:06:09;50.25;;;25.30;;
24261;SDS011;12385;51.412;5.540;2022-12-07T05:08:35;39.33;;;23.15;;
24261;SDS011;12385;51.412;5.540;2022-12-07T05:11:02;41.20;;;22.10;;
24261;SDS011;12385;51.412;5.540;2022-12-07T05:13:28;39.22;;;21.33;;
24261;SDS011;12385;51.412;5.540;2022-12-07T05:15:54;39.63;;;23.10;;
24261;SDS011;12385;51.412;5.540;2022-12-07T05:18:20;38.13;;;22.33;;
24261;SDS011;12385;51.412;5.540;2022-12-07T05:20:45;36.40;;;22.33;;
24261;SDS011;12385;51.412;5.540;2022-12-07T05:23:11;39.35;;;21.80;;
24261;SDS011;12385;51.412;5.540;2022-12-07T05:25:37;31.63;;;20.60;;
24261;SDS011;12385;51.412;5.540;2022-12-07T05:28:03;40.25;;;21.25;;
24261;SDS011;12385;51.412;5.540;2022-12-07T05:30:30;40.85;;;23.27;;
24261;SDS011;12385;51.412;5.540;2022-12-07T05:32:56;46.65;;;23.33;;
24261;SDS011;12385;51.412;5.540;2022-12-07T05:35:21;39.65;;;22.25;;
24261;SDS011;12385;51.412;5.540;2022-12-07T05:37:47;37.63;;;20.75;;
24261;SDS011;12385;51.412;5.540;2022-12-07T05:40:13;32.65;;;19.23;;
24261;SDS011;12385;51.412;5.540;2022-12-07T05:42:40;45.47;;;21.88;;
24261;SDS011;12385;51.412;5.540;2022-12-07T05:45:07;33.28;;;19.30;;
24261;SDS011;12385;51.412;5.540;2022-12-07T05:47:33;39.70;;;20.95;;
24261;SDS011;12385;51.412;5.540;2022-12-07T05:49:59;37.05;;;20.20;;
24261;SDS011;12385;51.412;5.540;2022-12-07T05:52:25;34.67;;;20.38;;
24261;SDS011;12385;51.412;5.540;2022-12-07T05:54:51;29.52;;;17.55;;
24261;SDS011;12385;51.412;5.540;2022-12-07T05:57:17;33.20;;;18.48;;
24261;SDS011;12385;51.412;5.540;2022-12-07T05:59:43;30.48;;;17.48;;
24261;SDS011;12385;51.412;5.540;2022-12-07T06:02:10;37.10;;;18.38;;
24261;SDS011;12385;51.412;5.540;2022-12-07T06:04:38;30.55;;;16.70;;
24261;SDS011;12385;51.412;5.540;2022-12-07T06:07:05;29.00;;;16.17;;
24261;SDS011;12385;51.412;5.540;2022-12-07T06:09:32;32.88;;;16.60;;
24261;SDS011;12385;51.412;5.540;2022-12-07T06:11:58;32.28;;;17.05;;
24261;SDS011;12385;51.412;5.540;2022-12-07T06:14:43;34.65;;;16.70;;
24261;SDS011;12385;51.412;5.540;2022-12-07T06:17:09;35.00;;;17.13;;
24261;SDS011;12385;51.412;5.540;2022-12-07T06:19:35;33.67;;;17.17;;
24261;SDS011;12385;51.412;5.540;2022-12-07T06:22:01;33.30;;;16.63;;
24261;SDS011;12385;51.412;5.540;2022-12-07T06:24:27;31.15;;;17.33;;
24261;SDS011;12385;51.412;5.540;2022-12-07T06:26:53;29.67;;;17.05;;
24261;SDS011;12385;51.412;5.540;2022-12-07T06:29:19;37.00;;;17.25;;
24261;SDS011;12385;51.412;5.540;2022-12-07T06:31:45;28.27;;;17.55;;
24261;SDS011;12385;51.412;5.540;2022-12-07T06:34:12;33.03;;;16.90;;
24261;SDS011;12385;51.412;5.540;2022-12-07T06:36:40;27.87;;;15.67;;
24261;SDS011;12385;51.412;5.540;2022-12-07T06:39:05;29.00;;;14.48;;
24261;SDS011;12385;51.412;5.540;2022-12-07T06:41:33;30.33;;;15.38;;
24261;SDS011;12385;51.412;5.540;2022-12-07T06:44:01;26.52;;;15.27;;
24261;SDS011;12385;51.412;5.540;2022-12-07T06:46:27;28.73;;;14.40;;
24261;SDS011;12385;51.412;5.540;2022-12-07T06:48:52;24.73;;;14.68;;
24261;SDS011;12385;51.412;5.540;2022-12-07T06:51:18;28.30;;;15.48;;
24261;SDS011;12385;51.412;5.540;2022-12-07T06:53:44;33.83;;;16.60;;
24261;SDS011;12385;51.412;5.540;2022-12-07T06:56:09;35.67;;;15.95;;
24261;SDS011;12385;51.412;5.540;2022-12-07T06:58:35;23.83;;;14.65;;
24261;SDS011;12385;51.412;5.540;2022-12-07T07:01:01;28.63;;;14.10;;
24261;SDS011;12385;51.412;5.540;2022-12-07T07:03:28;31.42;;;15.75;;
24261;SDS011;12385;51.412;5.540;2022-12-07T07:05:53;27.63;;;16.23;;
24261;SDS011;12385;51.412;5.540;2022-12-07T07:08:19;28.42;;;14.35;;
24261;SDS011;12385;51.412;5.540;2022-12-07T07:10:44;32.42;;;15.52;;
24261;SDS011;12385;51.412;5.540;2022-12-07T07:13:10;32.38;;;17.50;;
24261;SDS011;12385;51.412;5.540;2022-12-07T07:15:36;34.38;;;18.30;;
24261;SDS011;12385;51.412;5.540;2022-12-07T07:18:03;31.48;;;17.85;;
24261;SDS011;12385;51.412;5.540;2022-12-07T07:20:29;35.83;;;19.88;;
24261;SDS011;12385;51.412;5.540;2022-12-07T07:22:55;37.50;;;20.83;;
24261;SDS011;12385;51.412;5.540;2022-12-07T07:25:21;40.90;;;22.63;;
24261;SDS011;12385;51.412;5.540;2022-12-07T07:27:46;46.33;;;23.25;;
24261;SDS011;12385;51.412;5.540;2022-12-07T07:30:12;47.63;;;25.40;;
24261;SDS011;12385;51.412;5.540;2022-12-07T07:32:38;46.65;;;26.27;;
24261;SDS011;12385;51.412;5.540;2022-12-07T07:35:04;43.85;;;24.67;;
24261;SDS011;12385;51.412;5.540;2022-12-07T07:37:29;49.38;;;25.00;;
24261;SDS011;12385;51.412;5.540;2022-12-07T07:39:55;51.95;;;27.80;;
24261;SDS011;12385;51.412;5.540;2022-12-07T07:42:21;51.20;;;28.58;;
24261;SDS011;12385;51.412;5.540;2022-12-07T07:44:47;49.15;;;26.80;;
24261;SDS011;12385;51.412;5.540;2022-12-07T07:47:12;41.05;;;26.25;;
24261;SDS011;12385;51.412;5.540;2022-12-07T07:49:38;47.13;;;25.15;;
24261;SDS011;12385;51.412;5.540;2022-12-07T07:52:04;51.33;;;26.05;;
24261;SDS011;12385;51.412;5.540;2022-12-07T07:54:30;55.97;;;27.73;;
24261;SDS011;12385;51.412;5.540;2022-12-07T07:56:56;60.30;;;28.10;;
24261;SDS011;12385;51.412;5.540;2022-12-07T07:59:22;46.90;;;25.20;;
24261;SDS011;12385;51.412;5.540;2022-12-07T08:01:48;54.00;;;27.08;;
24261;SDS011;12385;51.412;5.540;2022-12-07T08:04:13;63.17;;;28.27;;
24261;SDS011;12385;51.412;5.540;2022-12-07T08:06:39;48.40;;;26.67;;
24261;SDS011;12385;51.412;5.540;2022-12-07T08:09:06;62.92;;;30.38;;
24261;SDS011;12385;51.412;5.540;2022-12-07T08:11:33;55.30;;;28.30;;
24261;SDS011;12385;51.412;5.540;2022-12-07T08:13:58;57.72;;;31.48;;
24261;SDS011;12385;51.412;5.540;2022-12-07T08:16:24;64.07;;;31.02;;
24261;SDS011;12385;51.412;5.540;2022-12-07T08:18:50;51.17;;;29.63;;
24261;SDS011;12385;51.412;5.540;2022-12-07T08:21:15;61.03;;;31.42;;
24261;SDS011;12385;51.412;5.540;2022-12-07T08:23:41;56.72;;;31.35;;
24261;SDS011;12385;51.412;5.540;2022-12-07T08:26:08;54.28;;;30.00;;
24261;SDS011;12385;51.412;5.540;2022-12-07T08:28:35;53.65;;;30.55;;
24261;SDS011;12385;51.412;5.540;2022-12-07T08:31:05;56.50;;;30.02;;
24261;SDS011;12385;51.412;5.540;2022-12-07T08:33:39;61.17;;;31.63;;
24261;SDS011;12385;51.412;5.540;2022-12-07T08:36:06;59.22;;;30.90;;
24261;SDS011;12385;51.412;5.540;2022-12-07T08:38:34;58.00;;;30.57;;
24261;SDS011;12385;51.412;5.540;2022-12-07T08:41:01;51.13;;;28.33;;
24261;SDS011;12385;51.412;5.540;2022-12-07T08:43:28;54.47;;;29.70;;
24261;SDS011;12385;51.412;5.540;2022-12-07T08:46:39;56.45;;;29.63;;
24261;SDS011;12385;51.412;5.540;2022-12-07T08:48:45;54.47;;;29.75;;
24261;SDS011;12385;51.412;5.540;2022-12-07T08:51:16;58.17;;;29.10;;
24261;SDS011;12385;51.412;5.540;2022-12-07T08:53:42;46.95;;;26.13;;
24261;SDS011;12385;51.412;5.540;2022-12-07T08:56:09;50.58;;;28.70;;
24261;SDS011;12385;51.412;5.540;2022-12-07T08:58:34;44.88;;;26.63;;
24261;SDS011;12385;51.412;5.540;2022-12-07T09:01:02;43.42;;;23.10;;
24261;SDS011;12385;51.412;5.540;2022-12-07T09:03:29;41.08;;;23.88;;
24261;SDS011;12385;51.412;5.540;2022-12-07T09:05:55;50.88;;;24.95;;
24261;SDS011;12385;51.412;5.540;2022-12-07T09:08:22;43.38;;;23.73;;
24261;SDS011;12385;51.412;5.540;2022-12-07T09:10:51;36.13;;;21.33;;
24261;SDS011;12385;51.412;5.540;2022-12-07T09:13:17;39.65;;;22.25;;
24261;SDS011;12385;51.412;5.540;2022-12-07T09:15:43;37.78;;;20.75;;
24261;SDS011;12385;51.412;5.540;2022-12-07T09:18:08;46.50;;;21.85;;
24261;SDS011;12385;51.412;5.540;2022-12-07T09:20:34;39.78;;;20.40;;
24261;SDS011;12385;51.412;5.540;2022-12-07T09:23:00;34.42;;;18.35;;
24261;SDS011;12385;51.412;5.540;2022-12-07T09:25:26;35.63;;;19.17;;
24261;SDS011;12385;51.412;5.540;2022-12-07T09:27:56;32.92;;;16.73;;
24261;SDS011;12385;51.412;5.540;2022-12-07T09:30:23;35.15;;;17.58;;
24261;SDS011;12385;51.412;5.540;2022-12-07T09:32:48;35.95;;;17.40;;
24261;SDS011;12385;51.412;5.540;2022-12-07T09:35:14;34.45;;;16.33;;
24261;SDS011;12385;51.412;5.540;2022-12-07T09:37:40;35.85;;;17.50;;
24261;SDS011;12385;51.412;5.540;2022-12-07T09:40:05;30.95;;;15.68;;
24261;SDS011;12385;51.412;5.540;2022-12-07T09:42:33;32.60;;;15.27;;
24261;SDS011;12385;51.412;5.540;2022-12-07T09:45:05;26.20;;;16.05;;
24261;SDS011;12385;51.412;5.540;2022-12-07T09:47:32;26.85;;;13.70;;
24261;SDS011;12385;51.412;5.540;2022-12-07T09:50:05;23.80;;;13.55;;
24261;SDS011;12385;51.412;5.540;2022-12-07T09:52:40;27.58;;;12.80;;
24261;SDS011;12385;51.412;5.540;2022-12-07T09:55:09;24.08;;;13.32;;
24261;SDS011;12385;51.412;5.540;2022-12-07T09:57:40;28.75;;;13.00;;
24261;SDS011;12385;51.412;5.540;2022-12-07T10:00:10;29.05;;;13.43;;
24261;SDS011;12385;51.412;5.540;2022-12-07T10:03:00;25.23;;;13.05;;
24261;SDS011;12385;51.412;5.540;2022-12-07T10:05:30;22.27;;;12.60;;
24261;SDS011;12385;51.412;5.540;2022-12-07T10:08:02;31.50;;;13.82;;
24261;SDS011;12385;51.412;5.540;2022-12-07T10:10:33;25.15;;;13.48;;
24261;SDS011;12385;51.412;5.540;2022-12-07T10:13:04;33.28;;;14.07;;
24261;SDS011;12385;51.412;5.540;2022-12-07T10:18:13;25.30;;;13.10;;
24261;SDS011;12385;51.412;5.540;2022-12-07T10:23:34;25.90;;;12.55;;
24261;SDS011;12385;51.412;5.540;2022-12-07T10:26:19;23.80;;;10.80;;
24261;SDS011;12385;51.412;5.540;2022-12-07T10:28:52;20.65;;;10.63;;
24261;SDS011;12385;51.412;5.540;2022-12-07T10:31:19;20.90;;;10.40;;
24261;SDS011;12385;51.412;5.540;2022-12-07T10:33:52;18.33;;;9.68;;
24261;SDS011;12385;51.412;5.540;2022-12-07T10:39:10;19.15;;;8.98;;
24261;SDS011;12385;51.412;5.540;2022-12-07T10:41:53;16.65;;;8.05;;
24261;SDS011;12385;51.412;5.540;2022-12-07T10:44:21;19.95;;;8.23;;
24261;SDS011;12385;51.412;5.540;2022-12-07T10:47:01;22.60;;;7.72;;
24261;SDS011;12385;51.412;5.540;2022-12-07T11:00:47;18.40;;;6.88;;
24261;SDS011;12385;51.412;5.540;2022-12-07T11:14:35;17.67;;;5.72;;
24261;SDS011;12385;51.412;5.540;2022-12-07T11:17:10;22.25;;;5.60;;
24261;SDS011;12385;51.412;5.540;2022-12-07T11:24:51;17.67;;;5.90;;
24261;SDS011;12385;51.412;5.540;2022-12-07T11:27:35;19.27;;;5.47;;
24261;SDS011;12385;51.412;5.540;2022-12-07T11:30:16;15.77;;;5.15;;
24261;SDS011;12385;51.412;5.540;2022-12-07T11:37:45;13.52;;;4.80;;
24261;SDS011;12385;51.412;5.540;2022-12-07T11:40:26;8.73;;;4.03;;
24261;SDS011;12385;51.412;5.540;2022-12-07T11:45:26;9.45;;;4.38;;
24261;SDS011;12385;51.412;5.540;2022-12-07T11:50:32;16.52;;;4.93;;
24261;SDS011;12385;51.412;5.540;2022-12-07T11:53:20;11.35;;;4.68;;
24261;SDS011;12385;51.412;5.540;2022-12-07T11:55:57;13.07;;;3.93;;
24261;SDS011;12385;51.412;5.540;2022-12-07T12:04:30;17.85;;;4.93;;
24261;SDS011;12385;51.412;5.540;2022-12-07T12:06:38;15.27;;;4.53;;
24261;SDS011;12385;51.412;5.540;2022-12-07T12:10:07;13.43;;;3.47;;
24261;SDS011;12385;51.412;5.540;2022-12-07T12:21:00;8.18;;;2.75;;
24261;SDS011;12385;51.412;5.540;2022-12-07T12:26:23;10.38;;;2.80;;
24261;SDS011;12385;51.412;5.540;2022-12-07T12:34:01;16.38;;;2.42;;
24261;SDS011;12385;51.412;5.540;2022-12-07T12:46:45;10.20;;;2.28;;
24261;SDS011;12385;51.412;5.540;2022-12-07T12:51:44;12.32;;;2.75;;
24261;SDS011;12385;51.412;5.540;2022-12-07T13:01:46;11.50;;;1.98;;
24261;SDS011;12385;51.412;5.540;2022-12-07T13:04:27;8.63;;;1.67;;
24261;SDS011;12385;51.412;5.540;2022-12-07T13:07:08;6.80;;;1.42;;
24261;SDS011;12385;51.412;5.540;2022-12-07T13:09:36;4.03;;;1.30;;
24261;SDS011;12385;51.412;5.540;2022-12-07T13:12:12;5.97;;;1.45;;
24261;SDS011;12385;51.412;5.540;2022-12-07T13:14:41;6.60;;;1.50;;
24261;SDS011;12385;51.412;5.540;2022-12-07T13:17:11;8.48;;;1.70;;
24261;SDS011;12385;51.412;5.540;2022-12-07T13:20:04;8.30;;;1.52;;
24261;SDS011;12385;51.412;5.540;2022-12-07T13:25:17;8.85;;;1.85;;
24261;SDS011;12385;51.412;5.540;2022-12-07T13:27:51;9.23;;;1.75;;
24261;SDS011;12385;51.412;5.540;2022-12-07T13:30:25;9.38;;;1.70;;
24261;SDS011;12385;51.412;5.540;2022-12-07T13:32:56;8.95;;;2.00;;
24261;SDS011;12385;51.412;5.540;2022-12-07T13:35:27;6.95;;;1.90;;
24261;SDS011;12385;51.412;5.540;2022-12-07T13:37:56;7.10;;;1.83;;
24261;SDS011;12385;51.412;5.540;2022-12-07T13:40:22;7.68;;;1.67;;
24261;SDS011;12385;51.412;5.540;2022-12-07T13:42:56;6.43;;;1.60;;
24261;SDS011;12385;51.412;5.540;2022-12-07T13:45:24;6.55;;;1.83;;
24261;SDS011;12385;51.412;5.540;2022-12-07T13:51:14;11.52;;;1.83;;
24261;SDS011;12385;51.412;5.540;2022-12-07T13:53:48;8.15;;;1.80;;
24261;SDS011;12385;51.412;5.540;2022-12-07T13:56:34;8.93;;;2.10;;
24261;SDS011;12385;51.412;5.540;2022-12-07T13:59:00;9.27;;;2.30;;
24261;SDS011;12385;51.412;5.540;2022-12-07T14:01:26;9.00;;;2.70;;
24261;SDS011;12385;51.412;5.540;2022-12-07T14:03:55;8.40;;;2.03;;
24261;SDS011;12385;51.412;5.540;2022-12-07T14:06:47;6.10;;;1.83;;
24261;SDS011;12385;51.412;5.540;2022-12-07T14:09:17;9.60;;;2.22;;
24261;SDS011;12385;51.412;5.540;2022-12-07T14:11:47;7.72;;;2.28;;
24261;SDS011;12385;51.412;5.540;2022-12-07T14:14:15;7.47;;;2.13;;
24261;SDS011;12385;51.412;5.540;2022-12-07T14:16:45;11.70;;;2.20;;
24261;SDS011;12385;51.412;5.540;2022-12-07T14:19:41;8.88;;;1.98;;
24261;SDS011;12385;51.412;5.540;2022-12-07T14:22:25;10.30;;;1.80;;
24261;SDS011;12385;51.412;5.540;2022-12-07T14:27:39;8.35;;;2.22;;
24261;SDS011;12385;51.412;5.540;2022-12-07T14:30:15;10.93;;;2.20;;
24261;SDS011;12385;51.412;5.540;2022-12-07T14:32:43;6.25;;;2.50;;
24261;SDS011;12385;51.412;5.540;2022-12-07T14:35:13;9.95;;;2.80;;
24261;SDS011;12385;51.412;5.540;2022-12-07T14:37:42;9.32;;;2.63;;
24261;SDS011;12385;51.412;5.540;2022-12-07T14:40:12;8.63;;;2.70;;
24261;SDS011;12385;51.412;5.540;2022-12-07T14:42:39;9.82;;;2.60;;
24261;SDS011;12385;51.412;5.540;2022-12-07T14:45:11;9.18;;;2.50;;
24261;SDS011;12385;51.412;5.540;2022-12-07T14:47:39;7.15;;;2.60;;
24261;SDS011;12385;51.412;5.540;2022-12-07T14:50:05;7.05;;;2.40;;
24261;SDS011;12385;51.412;5.540;2022-12-07T14:52:31;8.00;;;2.65;;
24261;SDS011;12385;51.412;5.540;2022-12-07T14:54:57;7.60;;;2.70;;
24261;SDS011;12385;51.412;5.540;2022-12-07T14:57:22;7.25;;;2.80;;
24261;SDS011;12385;51.412;5.540;2022-12-07T14:59:48;9.38;;;2.63;;
24261;SDS011;12385;51.412;5.540;2022-12-07T15:02:14;7.40;;;2.90;;
24261;SDS011;12385;51.412;5.540;2022-12-07T15:04:40;10.80;;;2.60;;
24261;SDS011;12385;51.412;5.540;2022-12-07T15:07:28;5.78;;;2.50;;
24261;SDS011;12385;51.412;5.540;2022-12-07T15:09:53;9.05;;;2.50;;
24261;SDS011;12385;51.412;5.540;2022-12-07T15:12:19;7.18;;;2.72;;
24261;SDS011;12385;51.412;5.540;2022-12-07T15:14:45;10.60;;;2.90;;
24261;SDS011;12385;51.412;5.540;2022-12-07T15:17:11;11.23;;;2.72;;
24261;SDS011;12385;51.412;5.540;2022-12-07T15:19:37;9.95;;;2.70;;
24261;SDS011;12385;51.412;5.540;2022-12-07T15:22:03;5.45;;;2.38;;
24261;SDS011;12385;51.412;5.540;2022-12-07T15:24:29;6.68;;;2.50;;
24261;SDS011;12385;51.412;5.540;2022-12-07T15:26:55;11.05;;;2.38;;
24261;SDS011;12385;51.412;5.540;2022-12-07T15:29:20;10.57;;;2.30;;
24261;SDS011;12385;51.412;5.540;2022-12-07T15:31:47;5.63;;;2.13;;
24261;SDS011;12385;51.412;5.540;2022-12-07T15:34:14;4.72;;;2.10;;
24261;SDS011;12385;51.412;5.540;2022-12-07T15:36:39;5.80;;;2.00;;
24261;SDS011;12385;51.412;5.540;2022-12-07T15:39:05;4.90;;;2.05;;
24261;SDS011;12385;51.412;5.540;2022-12-07T15:41:31;6.30;;;2.30;;
24261;SDS011;12385;51.412;5.540;2022-12-07T15:43:56;9.30;;;2.67;;
24261;SDS011;12385;51.412;5.540;2022-12-07T15:46:40;6.43;;;2.40;;
24261;SDS011;12385;51.412;5.540;2022-12-07T15:49:14;9.18;;;2.63;;
24261;SDS011;12385;51.412;5.540;2022-12-07T15:51:41;4.20;;;2.00;;
24261;SDS011;12385;51.412;5.540;2022-12-07T15:54:11;9.02;;;2.60;;
24261;SDS011;12385;51.412;5.540;2022-12-07T15:56:45;11.82;;;2.80;;
24261;SDS011;12385;51.412;5.540;2022-12-07T15:59:11;9.52;;;2.85;;
24261;SDS011;12385;51.412;5.540;2022-12-07T16:01:36;6.50;;;2.53;;
24261;SDS011;12385;51.412;5.540;2022-12-07T16:04:02;5.88;;;2.83;;
24261;SDS011;12385;51.412;5.540;2022-12-07T16:06:28;6.43;;;3.15;;
24261;SDS011;12385;51.412;5.540;2022-12-07T16:08:53;12.23;;;3.30;;
24261;SDS011;12385;51.412;5.540;2022-12-07T16:11:19;8.65;;;3.75;;
24261;SDS011;12385;51.412;5.540;2022-12-07T16:13:45;12.98;;;3.72;;
24261;SDS011;12385;51.412;5.540;2022-12-07T16:16:11;7.45;;;3.33;;
24261;SDS011;12385;51.412;5.540;2022-12-07T16:18:38;11.93;;;3.47;;
24261;SDS011;12385;51.412;5.540;2022-12-07T16:21:04;8.07;;;3.25;;
24261;SDS011;12385;51.412;5.540;2022-12-07T16:23:30;4.55;;;3.08;;
24261;SDS011;12385;51.412;5.540;2022-12-07T16:26:03;7.70;;;3.67;;
24261;SDS011;12385;51.412;5.540;2022-12-07T16:28:33;9.50;;;3.42;;
24261;SDS011;12385;51.412;5.540;2022-12-07T16:31:00;7.20;;;3.25;;
24261;SDS011;12385;51.412;5.540;2022-12-07T16:33:30;8.75;;;3.45;;
24261;SDS011;12385;51.412;5.540;2022-12-07T16:35:55;8.13;;;3.55;;
24261;SDS011;12385;51.412;5.540;2022-12-07T16:38:22;11.05;;;3.40;;
24261;SDS011;12385;51.412;5.540;2022-12-07T16:40:48;10.38;;;3.20;;
24261;SDS011;12385;51.412;5.540;2022-12-07T16:43:14;12.88;;;3.70;;
24261;SDS011;12385;51.412;5.540;2022-12-07T16:45:39;7.90;;;3.15;;
24261;SDS011;12385;51.412;5.540;2022-12-07T16:48:05;11.20;;;3.40;;
24261;SDS011;12385;51.412;5.540;2022-12-07T16:50:31;6.05;;;3.40;;
24261;SDS011;12385;51.412;5.540;2022-12-07T16:52:56;7.18;;;4.03;;